createdAt,value
2019-03-03T00:01:58.160Z,100665.98
2019-03-03T00:04:41.761Z,100665.91
2019-03-03T00:07:26.178Z,100669.55
2019-03-03T00:10:10.406Z,100677.41
2019-03-03T00:12:54.313Z,100687.19
2019-03-03T00:15:39.079Z,100691.37
2019-03-03T00:18:23.039Z,100684.22
2019-03-03T00:21:59.911Z,100678.39
2019-03-03T00:24:44.155Z,100639.96
2019-03-03T00:27:28.018Z,100636.98
2019-03-03T00:30:12.114Z,100639.92
2019-03-03T00:32:58.466Z,100652.06
2019-03-03T00:35:42.923Z,100620.75
2019-03-03T00:38:47.482Z,100611.78
2019-03-03T00:41:56.518Z,100596.39
2019-03-03T00:45:02.461Z,100602.75
2019-03-03T00:48:06.637Z,100599.00
2019-03-03T00:51:03.974Z,100602.80
2019-03-03T00:53:55.134Z,100622.34
2019-03-03T00:56:48.488Z,100600.77
2019-03-03T00:59:51.584Z,100598.73
2019-03-03T01:02:45.273Z,100605.28
2019-03-03T01:05:53.035Z,100583.69
2019-03-03T01:08:45.126Z,100595.24
2019-03-03T01:11:53.594Z,100601.11
2019-03-03T01:14:44.781Z,100590.62
2019-03-03T01:17:48.025Z,100564.97
2019-03-03T01:20:51.162Z,100569.33
2019-03-03T01:23:55.143Z,100586.04
2019-03-03T01:26:38.995Z,100577.91
2019-03-03T01:29:22.915Z,100541.38
2019-03-03T01:32:06.792Z,100530.19
2019-03-03T01:34:53.085Z,100528.05
2019-03-03T01:37:38.918Z,100551.78
2019-03-03T01:40:23.437Z,100555.56
2019-03-03T01:42:56.464Z,100548.66
2019-03-03T01:45:40.362Z,100520.98
2019-03-03T01:48:24.321Z,100515.25
2019-03-03T01:51:08.637Z,100534.95
2019-03-03T01:53:53.003Z,100528.13
2019-03-03T01:56:38.450Z,100509.62
2019-03-03T01:59:10.693Z,100519.88
2019-03-03T02:01:54.179Z,100494.92
2019-03-03T02:04:38.030Z,100488.03
2019-03-03T02:07:21.623Z,100508.02
2019-03-03T02:10:05.488Z,100501.80
2019-03-03T02:12:49.907Z,100507.94
2019-03-03T02:15:34.436Z,100511.78
2019-03-03T02:18:18.648Z,100482.28
2019-03-03T02:21:02.517Z,100503.03
2019-03-03T02:23:50.876Z,100465.08
2019-03-03T02:26:35.234Z,100468.70
2019-03-03T02:29:19.481Z,100486.78
2019-03-03T02:32:05.670Z,100486.62
2019-03-03T02:34:50.111Z,100467.25
2019-03-03T02:37:33.882Z,100490.56
2019-03-03T02:40:17.934Z,100486.95
2019-03-03T02:43:02.248Z,100448.64
2019-03-03T02:45:45.975Z,100447.78
2019-03-03T02:48:30.732Z,100445.96
2019-03-03T02:51:15.986Z,100445.56
2019-03-03T02:54:00.141Z,100433.95
2019-03-03T02:56:45.534Z,100449.32
2019-03-03T02:59:29.394Z,100427.19
2019-03-03T03:02:34.985Z,100417.24
2019-03-03T03:05:41.503Z,100427.67
2019-03-03T03:08:32.769Z,100416.02
2019-03-03T03:11:26.454Z,100434.46
2019-03-03T03:14:29.760Z,100404.04
2019-03-03T03:17:33.640Z,100437.53
2019-03-03T03:20:36.953Z,100409.61
2019-03-03T03:23:44.960Z,100391.78
2019-03-03T03:26:35.155Z,100408.17
2019-03-03T03:29:38.594Z,100408.23
2019-03-03T03:32:44.181Z,100409.52
2019-03-03T03:35:52.899Z,100377.78
2019-03-03T03:38:56.919Z,100372.05
2019-03-03T03:41:46.438Z,100367.50
2019-03-03T03:44:50.043Z,100378.84
2019-03-03T03:47:47.472Z,100348.42
2019-03-03T03:50:39.044Z,100370.20
2019-03-03T03:53:29.894Z,100342.70
2019-03-03T04:02:50.775Z,100337.58
2019-03-03T04:05:54.056Z,100344.80
2019-03-03T04:08:44.493Z,100343.50
2019-03-03T04:11:34.554Z,100340.98
2019-03-03T04:14:44.768Z,100309.84
2019-03-03T04:17:35.347Z,100318.81
2019-03-03T04:20:38.331Z,100316.00
2019-03-03T04:23:34.798Z,100316.42
2019-03-03T04:26:26.146Z,100284.55
2019-03-03T04:29:25.299Z,100304.92
2019-03-03T04:32:15.263Z,100286.91
2019-03-03T04:35:06.765Z,100277.22
2019-03-03T04:38:10.199Z,100302.45
2019-03-03T04:41:15.120Z,100305.88
2019-03-03T04:44:03.723Z,100294.48
2019-03-03T04:47:09.230Z,100272.67
2019-03-03T04:50:07.725Z,100277.95
2019-03-03T04:53:18.279Z,100294.84
2019-03-03T04:56:22.488Z,100289.25
2019-03-03T04:59:27.486Z,100294.42
2019-03-03T05:02:30.547Z,100264.45
2019-03-03T05:05:35.208Z,100265.86
2019-03-03T05:08:25.699Z,100277.39
2019-03-03T05:11:29.079Z,100282.45
2019-03-03T05:14:24.893Z,100282.11
2019-03-03T05:20:11.421Z,100263.84
2019-03-03T05:22:55.187Z,100260.09
2019-03-03T05:25:39.378Z,100254.63
2019-03-03T05:28:23.357Z,100279.48
2019-03-03T05:31:07.571Z,100274.73
2019-03-03T05:33:51.711Z,100267.34
2019-03-03T05:36:35.548Z,100243.78
2019-03-03T05:39:19.378Z,100246.68
2019-03-03T05:42:03.238Z,100250.20
2019-03-03T05:44:47.095Z,100246.22
2019-03-03T05:47:31.093Z,100242.09
2019-03-03T05:50:15.312Z,100260.22
2019-03-03T05:52:59.309Z,100227.23
2019-03-03T05:55:42.812Z,100230.42
2019-03-03T05:58:26.516Z,100248.02
2019-03-03T06:00:59.282Z,100247.52
2019-03-03T06:03:43.098Z,100222.25
2019-03-03T06:06:27.147Z,100228.52
2019-03-03T06:09:11.167Z,100223.69
2019-03-03T06:11:55.748Z,100231.98
2019-03-03T06:14:40.535Z,100228.13
2019-03-03T06:17:24.562Z,100231.87
2019-03-03T06:20:09.123Z,100252.09
2019-03-03T06:22:54.239Z,100258.44
2019-03-03T06:25:40.955Z,100257.41
2019-03-03T06:28:25.393Z,100226.28
2019-03-03T06:31:11.611Z,100223.36
2019-03-03T06:33:55.459Z,100255.51
2019-03-03T06:36:39.298Z,100253.73
2019-03-03T06:39:23.560Z,100254.00
2019-03-03T06:42:07.619Z,100225.91
2019-03-03T06:44:52.020Z,100241.41
2019-03-03T06:47:35.878Z,100235.02
2019-03-03T06:50:20.497Z,100220.88
2019-03-03T06:53:04.084Z,100218.16
2019-03-03T06:55:48.506Z,100237.23
2019-03-03T06:58:32.481Z,100216.72
2019-03-03T07:01:16.913Z,100243.92
2019-03-03T07:04:00.567Z,100254.58
2019-03-03T07:06:46.541Z,100226.48
2019-03-03T07:09:30.298Z,100251.39
2019-03-03T07:12:14.344Z,100227.78
2019-03-03T07:14:58.437Z,100224.25
2019-03-03T07:17:42.873Z,100224.45
2019-03-03T07:20:28.268Z,100246.55
2019-03-03T07:23:12.209Z,100235.75
2019-03-03T07:25:57.093Z,100262.75
2019-03-03T07:28:41.123Z,100230.49
2019-03-03T07:31:25.540Z,100261.61
2019-03-03T07:34:09.096Z,100247.13
2019-03-03T07:36:52.958Z,100262.59
2019-03-03T07:39:36.600Z,100242.27
2019-03-03T07:42:22.717Z,100262.27
2019-03-03T07:45:06.568Z,100236.50
2019-03-03T07:47:50.928Z,100231.09
2019-03-03T07:50:34.752Z,100240.66
2019-03-03T07:53:19.149Z,100244.50
2019-03-03T07:56:04.196Z,100242.23
2019-03-03T07:58:48.090Z,100256.77
2019-03-03T08:01:31.956Z,100241.67
2019-03-03T08:04:15.852Z,100268.16
2019-03-03T08:07:00.152Z,100247.77
2019-03-03T08:09:43.888Z,100268.57
2019-03-03T08:12:27.936Z,100276.48
2019-03-03T08:15:15.450Z,100278.40
2019-03-03T08:17:59.550Z,100253.35
2019-03-03T08:20:43.172Z,100262.88
2019-03-03T08:23:27.506Z,100259.53
2019-03-03T08:26:11.570Z,100252.16
2019-03-03T08:28:55.785Z,100255.36
2019-03-03T08:31:39.278Z,100255.34
2019-03-03T08:34:23.395Z,100281.53
2019-03-03T08:39:51.601Z,100262.88
2019-03-03T08:48:53.205Z,100294.66
2019-03-03T08:51:42.511Z,100274.53
2019-03-03T08:54:48.482Z,100289.88
2019-03-03T08:57:52.896Z,100265.73
2019-03-03T09:03:59.319Z,100267.20
2019-03-03T09:06:49.262Z,100294.04
2019-03-03T09:09:52.654Z,100275.66
2019-03-03T09:12:55.682Z,100276.17
2019-03-03T09:18:59.275Z,100306.48
2019-03-03T09:22:04.644Z,100303.26
2019-03-03T09:25:07.554Z,100269.71
2019-03-03T09:28:11.301Z,100284.84
2019-03-03T09:31:07.121Z,100286.98
2019-03-03T09:34:00.757Z,100267.84
2019-03-03T09:37:05.035Z,100260.29
2019-03-03T09:40:09.700Z,100271.75
2019-03-03T09:43:29.700Z,100294.57
2019-03-03T09:46:33.415Z,100283.91
2019-03-03T09:49:29.487Z,100286.49
2019-03-03T09:52:33.188Z,100310.28
2019-03-03T09:55:31.935Z,100293.41
2019-03-03T09:58:35.572Z,100292.55
2019-03-03T10:01:40.667Z,100315.16
2019-03-03T10:04:45.076Z,100292.62
2019-03-03T10:07:48.778Z,100315.33
2019-03-03T10:10:43.108Z,100315.98
2019-03-03T10:13:36.872Z,100297.25
2019-03-03T10:16:40.469Z,100312.50
2019-03-03T10:19:41.450Z,100308.33
2019-03-03T10:22:48.387Z,100276.16
2019-03-03T10:28:53.574Z,100294.15
2019-03-03T10:35:00.992Z,100294.25
2019-03-03T10:38:05.641Z,100301.02
2019-03-03T10:41:03.809Z,100294.98
2019-03-03T10:44:12.910Z,100297.38
2019-03-03T10:47:18.861Z,100308.32
2019-03-03T10:50:22.895Z,100305.72
2019-03-03T10:53:12.045Z,100330.36
2019-03-03T10:56:21.741Z,100331.30
2019-03-03T10:59:25.800Z,100311.16
2019-03-03T11:02:29.472Z,100294.37
2019-03-03T11:05:38.397Z,100320.50
2019-03-03T11:08:42.444Z,100299.44
2019-03-03T11:11:45.666Z,100309.13
2019-03-03T11:14:37.428Z,100309.33
2019-03-03T11:17:33.476Z,100280.72
2019-03-03T11:20:24.037Z,100303.82
2019-03-03T11:23:28.566Z,100302.53
2019-03-03T11:26:34.001Z,100273.83
2019-03-03T11:29:52.677Z,100274.09
2019-03-03T11:33:01.936Z,100295.63
2019-03-03T11:35:52.619Z,100287.87
2019-03-03T11:39:00.779Z,100294.35
2019-03-03T11:42:18.389Z,100299.36
2019-03-03T11:45:13.112Z,100296.73
2019-03-03T11:51:50.446Z,100287.04
2019-03-03T11:54:41.557Z,100299.34
2019-03-03T11:57:46.394Z,100265.13
2019-03-03T12:00:37.726Z,100286.94
2019-03-03T12:03:41.607Z,100250.97
2019-03-03T12:06:33.753Z,100269.05
2019-03-03T12:09:24.789Z,100263.84
2019-03-03T12:12:16.314Z,100268.28
2019-03-03T12:15:24.160Z,100257.11
2019-03-03T12:18:29.297Z,100238.03
2019-03-03T12:21:22.793Z,100237.66
2019-03-03T12:24:05.063Z,100252.39
2019-03-03T12:27:08.062Z,100229.28
2019-03-03T12:30:10.060Z,100258.15
2019-03-03T12:33:19.833Z,100238.17
2019-03-03T12:36:17.072Z,100253.06
2019-03-03T12:39:21.383Z,100248.70
2019-03-03T12:42:16.254Z,100228.56
2019-03-03T12:45:11.934Z,100241.75
2019-03-03T12:48:08.847Z,100241.45
2019-03-03T12:51:04.571Z,100240.17
2019-03-03T12:54:08.131Z,100242.72
2019-03-03T13:00:07.263Z,100232.53
2019-03-03T13:03:11.779Z,100226.17
2019-03-03T13:06:07.903Z,100223.25
2019-03-03T13:09:05.850Z,100218.44
2019-03-03T13:12:09.484Z,100193.41
2019-03-03T13:15:03.704Z,100183.42
2019-03-03T13:18:07.237Z,100205.42
2019-03-03T13:21:12.389Z,100179.66
2019-03-03T13:24:06.404Z,100168.64
2019-03-03T13:27:10.654Z,100172.69
2019-03-03T13:30:14.040Z,100187.28
2019-03-03T13:33:18.022Z,100180.67
2019-03-03T13:36:26.975Z,100180.13
2019-03-03T13:39:30.475Z,100153.16
2019-03-03T13:42:30.000Z,100146.45
2019-03-03T13:45:14.670Z,100142.84
2019-03-03T13:47:59.171Z,100135.41
2019-03-03T13:50:42.967Z,100131.95
2019-03-03T13:53:27.520Z,100148.95
2019-03-03T13:56:11.912Z,100154.13
2019-03-03T13:58:55.974Z,100121.48
2019-03-03T14:01:43.420Z,100123.47
2019-03-03T14:04:26.876Z,100123.41
2019-03-03T14:07:10.731Z,100126.30
2019-03-03T14:09:54.472Z,100119.50
2019-03-03T14:12:39.150Z,100114.19
2019-03-03T14:15:24.724Z,100118.30
2019-03-03T14:18:08.896Z,100124.47
2019-03-03T14:20:53.255Z,100126.73
2019-03-03T14:23:37.697Z,100109.88
2019-03-03T14:26:22.011Z,100103.73
2019-03-03T14:29:07.033Z,100094.34
2019-03-03T14:31:40.065Z,100116.84
2019-03-03T14:34:38.772Z,100116.85
2019-03-03T14:37:11.536Z,100108.23
2019-03-03T14:39:55.655Z,100078.25
2019-03-03T14:42:39.737Z,100076.35
2019-03-03T14:45:24.207Z,100096.41
2019-03-03T14:48:07.756Z,100069.92
2019-03-03T14:50:52.667Z,100073.36
2019-03-03T14:53:37.165Z,100085.45
2019-03-03T14:56:21.671Z,100079.41
2019-03-03T14:59:06.245Z,100069.78
2019-03-03T15:01:50.251Z,100042.80
2019-03-03T15:04:35.223Z,100067.97
2019-03-03T15:07:20.025Z,100061.52
2019-03-03T15:10:03.872Z,100028.28
2019-03-03T15:12:49.631Z,100033.75
2019-03-03T15:15:35.206Z,100050.75
2019-03-03T15:21:27.463Z,100019.32
2019-03-03T15:24:11.643Z,100017.69
2019-03-03T15:26:55.885Z,100025.94
2019-03-03T15:29:39.974Z,100012.23
2019-03-03T15:32:26.607Z,100030.84
2019-03-03T15:35:11.150Z,100003.52
2019-03-03T15:37:56.140Z,100019.33
2019-03-03T15:40:40.978Z,99996.49
2019-03-03T15:43:25.181Z,99995.09
2019-03-03T15:46:08.857Z,100010.61
2019-03-03T15:48:52.832Z,100008.48
2019-03-03T15:51:38.163Z,100002.20
2019-03-03T15:54:21.983Z,99999.66
2019-03-03T15:57:06.307Z,99995.02
2019-03-03T15:59:50.267Z,99989.30
2019-03-03T16:02:34.655Z,99967.11
2019-03-03T16:05:19.538Z,99959.73
2019-03-03T16:08:05.235Z,99955.81
2019-03-03T16:10:49.386Z,99971.27
2019-03-03T16:13:32.936Z,99972.52
2019-03-03T16:19:21.680Z,99950.78
2019-03-03T16:22:06.077Z,99929.86
2019-03-03T16:24:50.908Z,99927.26
2019-03-03T16:27:34.517Z,99920.84
2019-03-03T16:30:07.858Z,99943.23
2019-03-03T16:32:51.739Z,99925.00
2019-03-03T16:35:24.580Z,99937.25
2019-03-03T16:38:09.187Z,99907.16
2019-03-03T16:40:53.982Z,99900.10
2019-03-03T16:43:38.460Z,99890.66
2019-03-03T16:46:22.617Z,99892.04
2019-03-03T16:49:06.284Z,99917.06
2019-03-03T16:51:52.195Z,99913.73
2019-03-03T16:54:37.415Z,99903.56
2019-03-03T16:57:21.442Z,99906.13
2019-03-03T17:00:06.965Z,99879.80
2019-03-03T17:02:55.383Z,99899.36
2019-03-03T17:05:39.683Z,99875.05
2019-03-03T17:08:24.508Z,99864.20
2019-03-03T17:11:08.148Z,99868.23
2019-03-03T17:13:52.281Z,99884.02
2019-03-03T17:16:37.179Z,99861.22
2019-03-03T17:19:21.038Z,99846.73
2019-03-03T17:22:05.718Z,99874.25
2019-03-03T17:24:49.575Z,99839.30
2019-03-03T17:27:33.880Z,99840.98
2019-03-03T17:30:20.293Z,99861.11
2019-03-03T17:33:04.724Z,99860.80
2019-03-03T17:35:49.081Z,99834.43
2019-03-03T17:38:32.973Z,99864.25
2019-03-03T17:41:17.133Z,99860.64
2019-03-03T17:44:01.637Z,99833.66
2019-03-03T17:46:45.250Z,99828.22
2019-03-03T17:49:29.393Z,99859.02
2019-03-03T17:52:16.291Z,99853.92
2019-03-03T17:54:59.888Z,99824.92
2019-03-03T17:57:44.673Z,99822.03
2019-03-03T18:00:30.162Z,99844.89
2019-03-03T18:03:15.005Z,99829.56
2019-03-03T18:06:00.966Z,99832.66
2019-03-03T18:08:44.484Z,99805.05
2019-03-03T18:11:28.781Z,99799.52
2019-03-03T18:14:12.498Z,99802.09
2019-03-03T18:16:57.015Z,99815.34
2019-03-03T18:19:41.229Z,99806.66
2019-03-03T18:22:24.974Z,99779.45
2019-03-03T18:25:09.515Z,99779.94
2019-03-03T18:27:53.516Z,99786.13
2019-03-03T18:30:37.695Z,99803.75
2019-03-03T18:33:21.578Z,99801.38
2019-03-03T18:36:05.599Z,99798.16
2019-03-03T18:38:51.155Z,99791.94
2019-03-03T18:41:36.010Z,99792.08
2019-03-03T18:44:20.408Z,99767.31
2019-03-03T18:47:04.898Z,99782.63
2019-03-03T18:49:49.516Z,99777.83
2019-03-03T18:52:33.005Z,99776.50
2019-03-03T18:55:17.451Z,99749.44
2019-03-03T18:58:01.339Z,99749.37
2019-03-03T19:00:46.337Z,99761.59
2019-03-03T19:03:30.684Z,99753.66
2019-03-03T19:06:14.944Z,99752.66
2019-03-03T19:08:58.767Z,99755.74
2019-03-03T19:11:43.052Z,99769.84
2019-03-03T19:14:28.515Z,99740.06
2019-03-03T19:17:14.143Z,99750.93
2019-03-03T19:19:59.663Z,99748.44
2019-03-03T19:22:44.154Z,99773.33
2019-03-03T19:25:27.582Z,99764.95
2019-03-03T19:28:11.632Z,99740.09
2019-03-03T19:30:57.747Z,99733.05
2019-03-03T19:36:45.918Z,99767.27
2019-03-03T19:39:29.764Z,99746.76
2019-03-03T19:42:13.763Z,99743.14
2019-03-03T19:44:58.185Z,99734.66
2019-03-03T19:47:42.318Z,99760.41
2019-03-03T19:50:25.934Z,99728.58
2019-03-03T19:53:10.711Z,99739.94
2019-03-03T19:55:54.622Z,99737.59
2019-03-03T19:58:40.914Z,99736.72
2019-03-03T20:01:26.369Z,99742.17
2019-03-03T20:04:10.237Z,99739.22
2019-03-03T20:06:54.717Z,99737.08
2019-03-03T20:09:39.463Z,99754.54
2019-03-03T20:12:23.275Z,99744.70
2019-03-03T20:14:55.489Z,99754.55
2019-03-03T20:17:39.037Z,99732.13
2019-03-03T20:20:23.214Z,99736.86
2019-03-03T20:23:07.598Z,99749.24
2019-03-03T20:25:51.291Z,99746.05
2019-03-03T20:28:35.255Z,99715.16
2019-03-03T20:31:19.621Z,99703.44
2019-03-03T20:34:07.845Z,99725.36
2019-03-03T20:36:52.030Z,99712.95
2019-03-03T20:39:36.336Z,99712.69
2019-03-03T20:42:10.176Z,99703.80
2019-03-03T20:44:54.986Z,99702.41
2019-03-03T20:47:39.497Z,99674.86
2019-03-03T20:50:23.242Z,99684.91
2019-03-03T20:53:07.700Z,99687.24
2019-03-03T20:55:51.607Z,99672.53
2019-03-03T20:58:35.287Z,99670.48
2019-03-03T21:01:19.343Z,99641.70
2019-03-03T21:04:03.382Z,99665.72
2019-03-03T21:06:47.440Z,99626.73
2019-03-03T21:09:30.996Z,99632.61
2019-03-03T21:12:15.291Z,99641.47
2019-03-03T21:14:58.811Z,99611.94
2019-03-03T21:17:42.958Z,99606.92
2019-03-03T21:20:30.059Z,99630.03
2019-03-03T21:23:14.557Z,99623.54
2019-03-03T21:25:58.585Z,99611.44
2019-03-03T21:28:42.656Z,99603.74
2019-03-03T21:31:26.205Z,99610.50
2019-03-03T21:34:10.646Z,99609.31
2019-03-03T21:36:55.743Z,99575.16
2019-03-03T21:39:39.216Z,99576.23
2019-03-03T21:42:24.501Z,99596.25
2019-03-03T21:45:09.076Z,99568.13
2019-03-03T21:47:52.650Z,99583.36
2019-03-03T21:50:42.950Z,99568.34
2019-03-03T21:53:26.940Z,99550.41
2019-03-03T21:56:11.636Z,99555.67
2019-03-03T21:58:55.159Z,99550.59
2019-03-03T22:01:39.602Z,99576.44
2019-03-03T22:04:25.127Z,99565.91
2019-03-03T22:07:09.017Z,99542.05
2019-03-03T22:09:53.413Z,99558.30
2019-03-03T22:12:38.205Z,99529.27
2019-03-03T22:15:21.979Z,99536.86
2019-03-03T22:18:07.063Z,99525.17
2019-03-03T22:20:50.739Z,99523.98
2019-03-03T22:23:34.693Z,99516.69
2019-03-03T22:26:19.075Z,99500.77
2019-03-03T22:29:03.346Z,99522.47
2019-03-03T22:31:36.600Z,99517.48
2019-03-03T22:34:20.798Z,99519.83
2019-03-03T22:37:05.250Z,99494.67
2019-03-03T22:39:49.487Z,99478.31
2019-03-03T22:42:33.658Z,99483.91
2019-03-03T22:45:17.958Z,99474.80
2019-03-03T22:48:02.037Z,99475.45
2019-03-03T22:50:46.429Z,99493.27
2019-03-03T22:53:30.119Z,99487.48
2019-03-03T22:56:14.352Z,99496.63
2019-03-03T22:58:59.146Z,99479.52
2019-03-03T23:01:43.855Z,99492.40
2019-03-03T23:04:48.754Z,99466.25
2019-03-03T23:07:35.287Z,99452.92
2019-03-03T23:10:39.515Z,99450.53
2019-03-03T23:13:29.053Z,99474.08
2019-03-03T23:16:33.211Z,99446.17
2019-03-03T23:19:39.983Z,99469.20
2019-03-03T23:22:30.682Z,99453.66
2019-03-03T23:25:33.706Z,99437.80
2019-03-03T23:28:07.445Z,99459.43
2019-03-03T23:31:09.535Z,99435.38
2019-03-03T23:33:53.235Z,99425.21
2019-03-03T23:36:36.973Z,99424.62
2019-03-03T23:39:23.375Z,99436.03
2019-03-03T23:42:07.704Z,99405.56
2019-03-03T23:44:52.021Z,99404.28
2019-03-03T23:47:35.594Z,99399.74
2019-03-03T23:50:19.414Z,99413.33
2019-03-03T23:53:04.900Z,99405.47
2019-03-03T23:55:49.411Z,99400.72
2019-03-03T23:58:33.327Z,99373.49
